createdAt,value
2023-03-01T00:00:29.014Z,1027.59
2023-03-01T00:01:29.347Z,1027.68
2023-03-01T00:02:29.747Z,1027.69
2023-03-01T00:03:30.106Z,1027.69
2023-03-01T00:04:30.245Z,1027.74
2023-03-01T00:05:30.565Z,1027.71
2023-03-01T00:06:31.237Z,1027.66
2023-03-01T00:07:31.184Z,1027.76
2023-03-01T00:08:31.518Z,1027.65
2023-03-01T00:09:31.858Z,1027.74
2023-03-01T00:10:32.248Z,1027.72
2023-03-01T00:11:32.514Z,1027.71
2023-03-01T00:12:32.744Z,1027.74
2023-03-01T00:13:33.020Z,1027.72
2023-03-01T00:14:33.241Z,1027.74
2023-03-01T00:15:33.610Z,1027.69
2023-03-01T00:16:34.052Z,1027.67
2023-03-01T00:17:34.146Z,1027.69
2023-03-01T00:18:34.426Z,1027.68
2023-03-01T00:19:34.663Z,1027.73
2023-03-01T00:20:35.077Z,1027.71
2023-03-01T00:21:35.182Z,1027.68
2023-03-01T00:22:35.426Z,1027.70
2023-03-01T00:23:35.734Z,1027.75
2023-03-01T00:24:36.014Z,1027.76
2023-03-01T00:25:36.347Z,1027.78
2023-03-01T00:26:36.629Z,1027.75
2023-03-01T00:27:36.868Z,1027.75
2023-03-01T00:28:37.188Z,1027.75
2023-03-01T00:29:37.429Z,1027.69
2023-03-01T00:30:37.705Z,1027.70
2023-03-01T00:31:37.938Z,1027.70
2023-03-01T00:32:38.148Z,1027.66
2023-03-01T00:33:38.436Z,1027.67
2023-03-01T00:34:38.704Z,1027.66
2023-03-01T00:35:38.967Z,1027.67
2023-03-01T00:36:39.259Z,1027.65
2023-03-01T00:37:39.491Z,1027.71
2023-03-01T00:38:39.795Z,1027.69
2023-03-01T00:39:40.075Z,1027.66
2023-03-01T00:40:40.295Z,1027.65
2023-03-01T00:41:40.553Z,1027.65
2023-03-01T00:42:40.771Z,1027.65
2023-03-01T00:43:41.171Z,1027.64
2023-03-01T00:44:41.384Z,1027.62
2023-03-01T00:45:41.752Z,1027.61
2023-03-01T00:46:41.975Z,1027.64
2023-03-01T00:47:42.400Z,1027.67
2023-03-01T00:48:42.634Z,1027.60
2023-03-01T00:49:42.916Z,1027.59
2023-03-01T00:50:43.339Z,1027.63
2023-03-01T00:51:43.367Z,1027.54
2023-03-01T00:52:43.688Z,1027.53
2023-03-01T00:53:44.066Z,1027.55
2023-03-01T00:54:44.274Z,1027.56
2023-03-01T00:55:44.484Z,1027.51
2023-03-01T00:56:44.833Z,1027.59
2023-03-01T00:57:45.164Z,1027.50
2023-03-01T00:58:45.525Z,1027.51
2023-03-01T00:59:45.728Z,1027.49
2023-03-01T01:00:46.057Z,1027.39
2023-03-01T01:01:46.414Z,1027.41
2023-03-01T01:02:46.741Z,1027.35
2023-03-01T01:03:47.087Z,1027.37
2023-03-01T01:04:47.464Z,1027.32
2023-03-01T01:05:47.664Z,1027.30
2023-03-01T01:06:48.031Z,1027.31
2023-03-01T01:07:48.226Z,1027.23
2023-03-01T01:08:48.568Z,1027.26
2023-03-01T01:09:48.893Z,1027.18
2023-03-01T01:10:49.230Z,1027.16
2023-03-01T01:11:49.562Z,1027.10
2023-03-01T01:12:49.894Z,1027.13
2023-03-01T01:13:50.215Z,1027.06
2023-03-01T01:14:50.535Z,1027.03
2023-03-01T01:15:50.890Z,1027.05
2023-03-01T01:16:51.089Z,1027.08
2023-03-01T01:17:51.412Z,1027.04
2023-03-01T01:18:51.800Z,1027.03
2023-03-01T01:19:51.984Z,1026.98
2023-03-01T01:20:52.315Z,1026.99
2023-03-01T01:21:52.643Z,1026.96
2023-03-01T01:22:52.975Z,1026.84
2023-03-01T01:23:53.317Z,1026.96
2023-03-01T01:24:53.645Z,1026.92
2023-03-01T01:25:53.955Z,1026.91
2023-03-01T01:26:54.276Z,1026.92
2023-03-01T01:27:54.607Z,1026.95
2023-03-01T01:28:54.958Z,1026.93
2023-03-01T01:29:55.274Z,1026.86
2023-03-01T01:30:55.624Z,1026.84
2023-03-01T01:31:55.961Z,1026.88
2023-03-01T01:32:56.163Z,1026.86
2023-03-01T01:33:56.525Z,1026.89
2023-03-01T01:34:56.714Z,1026.91
2023-03-01T01:35:57.093Z,1026.93
2023-03-01T01:36:57.267Z,1026.90
2023-03-01T01:37:57.626Z,1026.92
2023-03-01T01:38:57.949Z,1026.87
2023-03-01T01:39:58.275Z,1026.88
2023-03-01T01:40:58.594Z,1026.95
2023-03-01T01:41:58.919Z,1026.91
2023-03-01T01:42:59.257Z,1026.98
2023-03-01T01:43:59.625Z,1026.96
2023-03-01T01:44:59.842Z,1026.96
2023-03-01T01:46:00.228Z,1027.03
2023-03-01T01:47:00.468Z,1027.01
2023-03-01T01:48:00.775Z,1027.01
2023-03-01T01:49:01.135Z,1027.00
2023-03-01T01:50:01.338Z,1027.02
2023-03-01T01:51:01.704Z,1027.03
2023-03-01T01:52:02.042Z,1026.96
2023-03-01T01:53:02.354Z,1026.98
2023-03-01T01:54:02.683Z,1027.04
2023-03-01T01:55:03.014Z,1027.04
2023-03-01T01:56:03.349Z,1027.05
2023-03-01T01:57:03.695Z,1027.02
2023-03-01T01:58:03.923Z,1027.04
2023-03-01T01:59:04.272Z,1027.06
2023-03-01T02:00:04.588Z,1026.99
2023-03-01T02:01:04.923Z,1026.95
2023-03-01T02:02:05.244Z,1027.04
2023-03-01T02:03:05.648Z,1027.03
2023-03-01T02:04:05.918Z,1026.98
2023-03-01T02:05:06.303Z,1027.04
2023-03-01T02:06:06.534Z,1026.98
2023-03-01T02:07:06.740Z,1026.89
2023-03-01T02:08:07.070Z,1026.92
2023-03-01T02:09:07.398Z,1026.83
2023-03-01T02:10:07.734Z,1026.96
2023-03-01T02:11:08.101Z,1026.93
2023-03-01T02:12:08.316Z,1026.93
2023-03-01T02:13:08.643Z,1026.91
2023-03-01T02:14:08.996Z,1026.97
2023-03-01T02:15:09.223Z,1026.90
2023-03-01T02:16:09.574Z,1026.96
2023-03-01T02:17:09.766Z,1026.96
2023-03-01T02:18:10.109Z,1027.01
2023-03-01T02:19:10.449Z,1027.01
2023-03-01T02:20:10.797Z,1027.04
2023-03-01T02:21:11.119Z,1026.97
2023-03-01T02:22:11.440Z,1027.01
2023-03-01T02:23:11.755Z,1027.00
2023-03-01T02:24:12.114Z,1027.06
2023-03-01T02:25:12.329Z,1027.10
2023-03-01T02:26:12.666Z,1027.07
2023-03-01T02:27:12.995Z,1027.12
2023-03-01T02:28:13.319Z,1027.09
2023-03-01T02:29:13.660Z,1027.14
2023-03-01T02:30:13.978Z,1027.07
2023-03-01T02:31:14.359Z,1027.12
2023-03-01T02:32:14.643Z,1027.10
2023-03-01T02:33:14.858Z,1027.15
2023-03-01T02:34:15.212Z,1027.19
2023-03-01T02:35:15.424Z,1027.17
2023-03-01T02:36:15.749Z,1027.05
2023-03-01T02:37:16.107Z,1027.03
2023-03-01T02:38:16.309Z,1026.96
2023-03-01T02:39:16.650Z,1026.96
2023-03-01T02:40:16.970Z,1026.96
2023-03-01T02:41:17.297Z,1026.93
2023-03-01T02:42:17.628Z,1026.94
2023-03-01T02:43:17.968Z,1026.94
2023-03-01T02:44:18.307Z,1026.92
2023-03-01T02:45:18.649Z,1026.87
2023-03-01T02:46:19.064Z,1026.87
2023-03-01T02:47:19.289Z,1026.82
2023-03-01T02:48:19.620Z,1026.85
2023-03-01T02:49:19.951Z,1026.84
2023-03-01T02:50:20.278Z,1026.87
2023-03-01T02:51:20.621Z,1026.88
2023-03-01T02:52:20.877Z,1026.85
2023-03-01T02:53:21.083Z,1026.84
2023-03-01T02:54:21.477Z,1026.90
2023-03-01T02:55:21.680Z,1026.84
2023-03-01T02:56:22.010Z,1026.79
2023-03-01T02:57:22.342Z,1026.88
2023-03-01T02:58:22.670Z,1026.79
2023-03-01T02:59:23.019Z,1026.81
2023-03-01T03:00:23.224Z,1026.80
2023-03-01T03:01:23.552Z,1026.76
2023-03-01T03:02:23.885Z,1026.86
2023-03-01T03:03:24.250Z,1026.87
2023-03-01T03:04:24.464Z,1026.83
2023-03-01T03:05:24.809Z,1026.86
2023-03-01T03:06:25.130Z,1026.81
2023-03-01T03:07:25.486Z,1026.79
2023-03-01T03:08:25.832Z,1026.81
2023-03-01T03:09:26.060Z,1026.76
2023-03-01T03:10:26.390Z,1026.77
2023-03-01T03:11:26.717Z,1026.79
2023-03-01T03:12:27.053Z,1026.81
2023-03-01T03:13:27.368Z,1026.82
2023-03-01T03:14:27.712Z,1026.81
2023-03-01T03:15:28.029Z,1026.81
2023-03-01T03:16:28.887Z,1026.81
2023-03-01T03:17:28.643Z,1026.78
2023-03-01T03:18:28.955Z,1026.84
2023-03-01T03:19:29.294Z,1026.84
2023-03-01T03:20:29.636Z,1026.83
2023-03-01T03:21:29.971Z,1026.80
2023-03-01T03:22:30.292Z,1026.69
2023-03-01T03:23:30.621Z,1026.76
2023-03-01T03:24:30.965Z,1026.70
2023-03-01T03:25:31.284Z,1026.69
2023-03-01T03:26:31.913Z,1026.69
2023-03-01T03:27:31.902Z,1026.71
2023-03-01T03:28:32.221Z,1026.74
2023-03-01T03:29:32.570Z,1026.62
2023-03-01T03:30:32.791Z,1026.65
2023-03-01T03:31:33.150Z,1026.64
2023-03-01T03:32:33.425Z,1026.56
2023-03-01T03:33:33.657Z,1026.52
2023-03-01T03:34:34.034Z,1026.58
2023-03-01T03:35:34.250Z,1026.47
2023-03-01T03:36:34.569Z,1026.53
2023-03-01T03:37:34.931Z,1026.48
2023-03-01T03:38:35.132Z,1026.50
2023-03-01T03:39:35.470Z,1026.44
2023-03-01T03:40:35.788Z,1026.42
2023-03-01T03:41:36.124Z,1026.39
2023-03-01T03:42:36.461Z,1026.48
2023-03-01T03:43:36.682Z,1026.50
2023-03-01T03:44:37.023Z,1026.42
2023-03-01T03:45:37.397Z,1026.50
2023-03-01T03:46:37.621Z,1026.50
2023-03-01T03:47:37.962Z,1026.48
2023-03-01T03:48:38.286Z,1026.47
2023-03-01T03:49:38.612Z,1026.40
2023-03-01T03:50:38.958Z,1026.42
2023-03-01T03:51:39.299Z,1026.35
2023-03-01T03:52:39.602Z,1026.33
2023-03-01T03:53:39.962Z,1026.32
2023-03-01T03:54:40.164Z,1026.35
2023-03-01T03:55:40.575Z,1026.29
2023-03-01T03:56:41.082Z,1026.34
2023-03-01T03:57:40.972Z,1026.30
2023-03-01T03:58:41.300Z,1026.28
2023-03-01T03:59:41.630Z,1026.29
2023-03-01T04:00:41.963Z,1026.20
2023-03-01T04:01:42.367Z,1026.25
2023-03-01T04:02:42.569Z,1026.27
2023-03-01T04:03:42.884Z,1026.29
2023-03-01T04:04:43.218Z,1026.30
2023-03-01T04:05:43.536Z,1026.28
2023-03-01T04:06:43.879Z,1026.33
2023-03-01T04:07:44.232Z,1026.23
2023-03-01T04:08:44.441Z,1026.21
2023-03-01T04:09:44.769Z,1026.24
2023-03-01T04:10:45.108Z,1026.20
2023-03-01T04:11:45.415Z,1026.28
2023-03-01T04:12:45.726Z,1026.25
2023-03-01T04:13:46.054Z,1026.30
2023-03-01T04:14:47.986Z,1026.26
2023-03-01T04:15:46.696Z,1026.33
2023-03-01T04:16:47.045Z,1026.29
2023-03-01T04:17:47.260Z,1026.32
2023-03-01T04:18:47.583Z,1026.27
2023-03-01T04:19:47.935Z,1026.21
2023-03-01T04:20:48.157Z,1026.21
2023-03-01T04:21:48.485Z,1026.21
2023-03-01T04:22:48.825Z,1026.29
2023-03-01T04:23:49.154Z,1026.24
2023-03-01T04:24:49.515Z,1026.30
2023-03-01T04:25:49.717Z,1026.20
2023-03-01T04:26:50.063Z,1026.25
2023-03-01T04:27:50.384Z,1026.27
2023-03-01T04:28:50.717Z,1026.28
2023-03-01T04:29:51.075Z,1026.23
2023-03-01T04:30:51.283Z,1026.15
2023-03-01T04:31:51.737Z,1026.17
2023-03-01T04:32:51.836Z,1026.18
2023-03-01T04:33:52.225Z,1026.11
2023-03-01T04:34:52.509Z,1026.12
2023-03-01T04:35:52.938Z,1026.18
2023-03-01T04:36:53.166Z,1026.17
2023-03-01T04:37:53.372Z,1026.21
2023-03-01T04:38:53.709Z,1026.20
2023-03-01T04:39:54.066Z,1026.22
2023-03-01T04:40:54.275Z,1026.18
2023-03-01T04:41:54.617Z,1026.24
2023-03-01T04:42:54.943Z,1026.22
2023-03-01T04:43:55.280Z,1026.23
2023-03-01T04:44:55.610Z,1026.21
2023-03-01T04:45:55.985Z,1026.25
2023-03-01T04:46:56.211Z,1026.25
2023-03-01T04:47:56.530Z,1026.23
2023-03-01T04:48:56.844Z,1026.28
2023-03-01T04:49:57.197Z,1026.20
2023-03-01T04:50:57.499Z,1026.22
2023-03-01T04:51:57.821Z,1026.19
2023-03-01T04:52:58.148Z,1026.19
2023-03-01T04:53:58.467Z,1026.20
2023-03-01T04:54:58.804Z,1026.14
2023-03-01T04:55:59.134Z,1026.12
2023-03-01T04:56:59.481Z,1026.09
2023-03-01T04:57:59.813Z,1026.10
2023-03-01T04:59:00.161Z,1026.08
2023-03-01T05:00:00.517Z,1026.06
2023-03-01T05:01:00.749Z,1025.99
2023-03-01T05:02:01.047Z,1025.97
2023-03-01T05:03:01.417Z,1025.98
2023-03-01T05:04:01.655Z,1025.98
2023-03-01T05:05:01.883Z,1025.94
2023-03-01T05:06:02.249Z,1025.95
2023-03-01T05:07:02.469Z,1026.00
2023-03-01T05:08:02.799Z,1025.99
2023-03-01T05:09:03.131Z,1025.99
2023-03-01T05:10:03.497Z,1026.07
2023-03-01T05:11:03.814Z,1026.06
2023-03-01T05:12:04.148Z,1026.08
2023-03-01T05:13:04.476Z,1026.07
2023-03-01T05:14:04.797Z,1026.02
2023-03-01T05:15:05.231Z,1026.00
2023-03-01T05:16:05.511Z,1026.00
2023-03-01T05:17:05.705Z,1026.03
2023-03-01T05:18:06.018Z,1025.99
2023-03-01T05:19:06.346Z,1026.05
2023-03-01T05:20:06.715Z,1026.08
2023-03-01T05:21:06.908Z,1026.10
2023-03-01T05:22:07.243Z,1026.10
2023-03-01T05:23:07.536Z,1026.09
2023-03-01T05:24:07.890Z,1026.07
2023-03-01T05:25:08.281Z,1026.14
2023-03-01T05:26:16.197Z,1026.06
2023-03-01T05:27:09.797Z,1026.05
2023-03-01T05:28:09.060Z,1026.07
2023-03-01T05:29:09.378Z,1026.07
2023-03-01T05:30:09.720Z,1026.13
2023-03-01T05:31:10.103Z,1026.14
2023-03-01T05:32:10.419Z,1026.13
2023-03-01T05:33:10.629Z,1026.07
2023-03-01T05:34:10.859Z,1026.14
2023-03-01T05:35:11.088Z,1026.13
2023-03-01T05:36:11.304Z,1026.09
2023-03-01T05:37:11.655Z,1026.06
2023-03-01T05:38:11.992Z,1026.08
2023-03-01T05:39:12.330Z,1026.08
2023-03-01T05:40:12.689Z,1026.03
2023-03-01T05:41:12.929Z,1026.03
2023-03-01T05:42:13.252Z,1026.03
2023-03-01T05:43:13.526Z,1026.01
2023-03-01T05:44:13.719Z,1025.98
2023-03-01T05:45:14.063Z,1026.03
2023-03-01T05:46:14.591Z,1026.07
2023-03-01T05:47:14.635Z,1026.07
2023-03-01T05:48:15.013Z,1026.05
2023-03-01T05:49:15.220Z,1026.11
2023-03-01T05:50:15.488Z,1026.12
2023-03-01T05:51:15.719Z,1026.07
2023-03-01T05:52:15.962Z,1026.07
2023-03-01T05:53:16.193Z,1026.07
2023-03-01T05:54:16.424Z,1026.10
2023-03-01T05:55:16.802Z,1026.08
2023-03-01T05:56:17.016Z,1026.06
2023-03-01T05:57:17.257Z,1026.05
2023-03-01T05:58:17.497Z,1026.07
2023-03-01T05:59:17.724Z,1025.98
2023-03-01T06:00:18.003Z,1025.98
2023-03-01T06:01:18.224Z,1025.99
2023-03-01T06:02:18.484Z,1026.03
2023-03-01T06:03:18.737Z,1026.06
2023-03-01T06:04:19.016Z,1025.99
2023-03-01T06:05:19.325Z,1026.07
2023-03-01T06:06:19.556Z,1026.08
2023-03-01T06:07:19.797Z,1026.04
2023-03-01T06:08:20.038Z,1026.05
2023-03-01T06:09:20.290Z,1025.95
2023-03-01T06:10:20.507Z,1026.01
2023-03-01T06:11:20.758Z,1026.01
2023-03-01T06:12:20.988Z,1025.99
2023-03-01T06:13:21.223Z,1026.08
2023-03-01T06:14:21.473Z,1026.07
2023-03-01T06:15:21.718Z,1026.11
2023-03-01T06:16:22.006Z,1026.14
2023-03-01T06:17:22.250Z,1026.11
2023-03-01T06:18:22.508Z,1026.09
2023-03-01T06:19:22.749Z,1026.08
2023-03-01T06:20:23.024Z,1026.08
2023-03-01T06:21:23.300Z,1026.14
2023-03-01T06:22:23.578Z,1026.11
2023-03-01T06:23:23.821Z,1026.09
2023-03-01T06:24:24.089Z,1026.09
2023-03-01T06:25:24.374Z,1026.08
2023-03-01T06:26:24.618Z,1026.07
2023-03-01T06:27:24.865Z,1026.11
2023-03-01T06:28:25.119Z,1026.07
2023-03-01T06:29:25.360Z,1026.03
2023-03-01T06:30:25.622Z,1026.08
2023-03-01T06:31:25.891Z,1026.02
2023-03-01T06:32:26.264Z,1026.06
2023-03-01T06:33:26.433Z,1026.03
2023-03-01T06:34:26.649Z,1025.99
2023-03-01T06:35:26.947Z,1026.04
2023-03-01T06:36:27.169Z,1026.06
2023-03-01T06:37:27.411Z,1026.11
2023-03-01T06:38:27.649Z,1026.10
2023-03-01T06:39:27.890Z,1026.00
2023-03-01T06:40:28.151Z,1026.03
2023-03-01T06:41:28.432Z,1026.02
2023-03-01T06:42:28.696Z,1026.02
2023-03-01T06:43:28.915Z,1026.09
2023-03-01T06:44:29.166Z,1026.06
2023-03-01T06:45:29.421Z,1026.12
2023-03-01T06:46:30.122Z,1026.12
2023-03-01T06:47:29.970Z,1026.09
2023-03-01T06:48:30.208Z,1026.06
2023-03-01T06:49:30.441Z,1026.13
2023-03-01T06:50:41.911Z,1026.10
2023-03-01T06:51:30.975Z,1026.13
2023-03-01T06:52:31.219Z,1026.21
2023-03-01T06:53:31.490Z,1026.13
2023-03-01T06:54:31.724Z,1026.17
2023-03-01T06:55:32.000Z,1026.10
2023-03-01T06:56:32.569Z,1026.17
2023-03-01T06:57:32.569Z,1026.15
2023-03-01T06:58:32.816Z,1026.13
2023-03-01T06:59:33.040Z,1026.09
2023-03-01T07:00:33.316Z,1026.08
2023-03-01T07:01:33.636Z,1026.14
2023-03-01T07:02:33.961Z,1026.05
2023-03-01T07:03:39.397Z,1026.16
2023-03-01T07:04:34.509Z,1026.19
2023-03-01T07:05:34.769Z,1026.17
2023-03-01T07:06:35.041Z,1026.21
2023-03-01T07:07:35.294Z,1026.23
2023-03-01T07:08:35.553Z,1026.17
2023-03-01T07:09:35.797Z,1026.21
2023-03-01T07:10:36.046Z,1026.16
2023-03-01T07:11:36.307Z,1026.20
2023-03-01T07:12:36.583Z,1026.25
2023-03-01T07:13:36.818Z,1026.25
2023-03-01T07:14:37.058Z,1026.21
2023-03-01T07:15:37.324Z,1026.17
2023-03-01T07:16:37.614Z,1026.21
2023-03-01T07:17:37.829Z,1026.24
2023-03-01T07:18:38.098Z,1026.20
2023-03-01T07:19:38.329Z,1026.18
2023-03-01T07:20:38.611Z,1026.21
2023-03-01T07:21:38.862Z,1026.19
2023-03-01T07:22:39.140Z,1026.21
2023-03-01T07:23:39.441Z,1026.20
2023-03-01T07:24:39.705Z,1026.20
2023-03-01T07:25:40.037Z,1026.17
2023-03-01T07:26:40.212Z,1026.18
2023-03-01T07:27:40.420Z,1026.16
2023-03-01T07:28:40.659Z,1026.15
2023-03-01T07:29:40.926Z,1026.15
2023-03-01T07:30:41.193Z,1026.11
2023-03-01T07:31:41.442Z,1026.15
2023-03-01T07:32:41.782Z,1026.12
2023-03-01T07:33:41.923Z,1026.15
2023-03-01T07:34:42.178Z,1026.13
2023-03-01T07:35:42.504Z,1026.08
2023-03-01T07:36:42.816Z,1026.14
2023-03-01T07:37:43.082Z,1026.12
2023-03-01T07:38:43.355Z,1026.20
2023-03-01T07:39:43.623Z,1026.14
2023-03-01T07:40:43.870Z,1026.14
2023-03-01T07:41:44.180Z,1026.09
2023-03-01T07:42:44.411Z,1026.07
2023-03-01T07:43:44.672Z,1026.06
2023-03-01T07:44:44.923Z,1026.06
2023-03-01T07:45:45.221Z,1026.16
2023-03-01T07:46:45.476Z,1026.16
2023-03-01T07:47:45.737Z,1026.15
2023-03-01T07:48:45.986Z,1026.12
2023-03-01T07:49:46.285Z,1026.04
2023-03-01T07:50:46.548Z,1026.14
2023-03-01T07:51:46.798Z,1026.14
2023-03-01T07:52:47.044Z,1026.13
2023-03-01T07:53:47.286Z,1026.14
2023-03-01T07:54:47.544Z,1026.18
2023-03-01T07:55:47.815Z,1026.21
2023-03-01T07:56:48.075Z,1026.10
2023-03-01T07:57:48.326Z,1026.13
2023-03-01T07:58:49.951Z,1026.21
2023-03-01T07:59:48.823Z,1026.14
2023-03-01T08:00:49.100Z,1026.09
2023-03-01T08:01:49.341Z,1026.13
2023-03-01T08:02:49.587Z,1026.13
2023-03-01T08:03:49.822Z,1026.08
2023-03-01T08:04:50.064Z,1026.08
2023-03-01T08:05:50.322Z,1026.04
2023-03-01T08:06:50.553Z,1026.09
2023-03-01T08:07:50.824Z,1026.02
2023-03-01T08:08:51.072Z,1026.10
2023-03-01T08:09:51.326Z,1026.10
2023-03-01T08:10:51.590Z,1026.10
2023-03-01T08:11:51.855Z,1026.07
2023-03-01T08:12:52.118Z,1026.14
2023-03-01T08:13:53.047Z,1025.98
2023-03-01T08:14:52.623Z,1026.03
2023-03-01T08:15:52.911Z,1026.02
2023-03-01T08:16:53.216Z,1025.99
2023-03-01T08:17:53.460Z,1026.02
2023-03-01T08:18:53.684Z,1026.01
2023-03-01T08:19:54.727Z,1026.00
2023-03-01T08:20:54.173Z,1025.97
2023-03-01T08:21:54.434Z,1026.00
2023-03-01T08:22:54.687Z,1025.90
2023-03-01T08:23:54.929Z,1025.94
2023-03-01T08:24:55.207Z,1025.90
2023-03-01T08:25:55.457Z,1025.93
2023-03-01T08:26:55.699Z,1025.90
2023-03-01T08:27:55.955Z,1025.86
2023-03-01T08:28:56.196Z,1025.89
2023-03-01T08:29:56.426Z,1025.86
2023-03-01T08:30:56.726Z,1025.91
2023-03-01T08:31:57.004Z,1025.93
2023-03-01T08:32:57.390Z,1025.92
2023-03-01T08:33:57.521Z,1025.84
2023-03-01T08:34:57.753Z,1025.84
2023-03-01T08:35:58.019Z,1025.84
2023-03-01T08:36:58.257Z,1025.92
2023-03-01T08:37:58.536Z,1025.90
2023-03-01T08:38:58.781Z,1025.87
2023-03-01T08:39:59.049Z,1025.83
2023-03-01T08:40:59.319Z,1025.79
2023-03-01T08:41:59.552Z,1025.77
2023-03-01T08:42:59.818Z,1025.78
2023-03-01T08:44:00.174Z,1025.74
2023-03-01T08:45:00.289Z,1025.77
2023-03-01T08:46:00.566Z,1025.66
2023-03-01T08:47:00.801Z,1025.72
2023-03-01T08:48:01.095Z,1025.71
2023-03-01T08:49:01.344Z,1025.67
2023-03-01T08:50:01.647Z,1025.63
2023-03-01T08:51:01.853Z,1025.63
2023-03-01T08:52:02.126Z,1025.65
2023-03-01T08:53:02.380Z,1025.65
2023-03-01T08:54:02.652Z,1025.63
2023-03-01T08:55:02.925Z,1025.70
2023-03-01T08:56:03.166Z,1025.61
2023-03-01T08:57:03.402Z,1025.65
2023-03-01T08:58:03.648Z,1025.68
2023-03-01T08:59:03.892Z,1025.68
2023-03-01T09:00:04.141Z,1025.70
2023-03-01T09:01:04.384Z,1025.68
2023-03-01T09:02:04.721Z,1025.66
2023-03-01T09:03:04.960Z,1025.70
2023-03-01T09:04:05.248Z,1025.65
2023-03-01T09:05:05.494Z,1025.68
2023-03-01T09:06:05.758Z,1025.72
2023-03-01T09:07:06.040Z,1025.65
2023-03-01T09:08:06.325Z,1025.71
2023-03-01T09:09:06.616Z,1025.69
2023-03-01T09:10:06.862Z,1025.63
2023-03-01T09:11:07.125Z,1025.70
2023-03-01T09:12:07.376Z,1025.67
2023-03-01T09:13:07.630Z,1025.68
2023-03-01T09:14:07.855Z,1025.62
2023-03-01T09:15:08.098Z,1025.65
2023-03-01T09:16:08.366Z,1025.66
2023-03-01T09:17:08.690Z,1025.62
2023-03-01T09:18:08.923Z,1025.62
2023-03-01T09:19:09.173Z,1025.55
2023-03-01T09:20:09.411Z,1025.64
2023-03-01T09:21:09.672Z,1025.59
2023-03-01T09:22:09.905Z,1025.58
2023-03-01T09:23:10.139Z,1025.62
2023-03-01T09:24:10.374Z,1025.63
2023-03-01T09:25:10.630Z,1025.65
2023-03-01T09:26:10.875Z,1025.57
2023-03-01T09:27:11.129Z,1025.62
2023-03-01T09:28:24.253Z,1025.63
2023-03-01T09:29:12.685Z,1025.60
2023-03-01T09:30:11.980Z,1025.61
2023-03-01T09:31:12.247Z,1025.55
2023-03-01T09:32:12.591Z,1025.54
2023-03-01T09:33:12.736Z,1025.56
2023-03-01T09:34:12.988Z,1025.57
2023-03-01T09:35:13.248Z,1025.53
2023-03-01T09:36:13.476Z,1025.58
2023-03-01T09:37:13.718Z,1025.53
2023-03-01T09:38:13.966Z,1025.51
2023-03-01T09:39:14.213Z,1025.47
2023-03-01T09:40:14.536Z,1025.48
2023-03-01T09:41:14.789Z,1025.49
2023-03-01T09:42:15.051Z,1025.44
2023-03-01T09:43:15.273Z,1025.44
2023-03-01T09:44:15.517Z,1025.49
2023-03-01T09:45:15.788Z,1025.50
2023-03-01T09:46:16.077Z,1025.42
2023-03-01T09:47:16.317Z,1025.40
2023-03-01T09:48:16.590Z,1025.48
2023-03-01T09:49:18.114Z,1025.40
2023-03-01T09:50:17.110Z,1025.36
2023-03-01T09:51:17.390Z,1025.38
2023-03-01T09:52:17.618Z,1025.42
2023-03-01T09:53:17.916Z,1025.41
2023-03-01T09:54:18.208Z,1025.45
2023-03-01T09:55:18.458Z,1025.45
2023-03-01T09:56:18.737Z,1025.42
2023-03-01T09:57:19.014Z,1025.40
2023-03-01T09:58:19.255Z,1025.42
2023-03-01T09:59:19.807Z,1025.37
2023-03-01T10:00:19.794Z,1025.47
2023-03-01T10:01:20.070Z,1025.44
2023-03-01T10:02:20.299Z,1025.38
2023-03-01T10:03:20.536Z,1025.42
2023-03-01T10:04:20.959Z,1025.32
2023-03-01T10:05:21.179Z,1025.32
2023-03-01T10:06:33.888Z,1025.38
2023-03-01T10:07:22.661Z,1025.36
2023-03-01T10:08:21.955Z,1025.32
2023-03-01T10:09:22.193Z,1025.30
2023-03-01T10:10:22.493Z,1025.40
2023-03-01T10:11:25.072Z,1025.36
2023-03-01T10:12:23.032Z,1025.34
2023-03-01T10:13:23.280Z,1025.37
2023-03-01T10:14:23.544Z,1025.34
2023-03-01T10:15:23.782Z,1025.37
2023-03-01T10:16:24.076Z,1025.36
2023-03-01T10:17:24.326Z,1025.33
2023-03-01T10:18:24.584Z,1025.41
2023-03-01T10:19:24.842Z,1025.39
2023-03-01T10:20:25.086Z,1025.39
2023-03-01T10:21:25.366Z,1025.39
2023-03-01T10:22:25.594Z,1025.39
2023-03-01T10:23:25.844Z,1025.33
2023-03-01T10:24:26.115Z,1025.37
2023-03-01T10:25:26.382Z,1025.39
2023-03-01T10:26:26.635Z,1025.38
2023-03-01T10:27:26.903Z,1025.29
2023-03-01T10:28:27.117Z,1025.31
2023-03-01T10:29:27.371Z,1025.26
2023-03-01T10:30:27.611Z,1025.31
2023-03-01T10:31:27.967Z,1025.19
2023-03-01T10:32:28.108Z,1025.15
2023-03-01T10:33:28.431Z,1025.23
2023-03-01T10:34:28.681Z,1025.18
2023-03-01T10:35:28.975Z,1025.16
2023-03-01T10:36:29.470Z,1025.14
2023-03-01T10:37:29.493Z,1025.11
2023-03-01T10:38:29.713Z,1025.10
2023-03-01T10:39:29.952Z,1025.16
2023-03-01T10:40:30.252Z,1025.08
2023-03-01T10:41:30.815Z,1025.03
2023-03-01T10:42:30.859Z,1025.03
2023-03-01T10:43:31.114Z,1025.02
2023-03-01T10:44:31.361Z,1025.10
2023-03-01T10:45:31.594Z,1025.06
2023-03-01T10:46:31.893Z,1025.07
2023-03-01T10:47:32.188Z,1025.03
2023-03-01T10:48:32.424Z,1025.10
2023-03-01T10:49:32.658Z,1025.08
2023-03-01T10:50:32.906Z,1025.10
2023-03-01T10:51:33.286Z,1025.11
2023-03-01T10:52:33.424Z,1025.09
2023-03-01T10:53:33.685Z,1025.00
2023-03-01T10:54:33.932Z,1025.05
2023-03-01T10:55:34.166Z,1025.05
2023-03-01T10:56:34.452Z,1025.03
2023-03-01T10:57:34.708Z,1025.02
2023-03-01T10:58:34.966Z,1025.01
2023-03-01T10:59:35.222Z,1024.97
2023-03-01T11:00:35.458Z,1024.97
2023-03-01T11:01:36.124Z,1024.97
2023-03-01T11:02:35.997Z,1024.97
2023-03-01T11:03:36.262Z,1024.99
2023-03-01T11:04:36.556Z,1024.99
2023-03-01T11:05:36.802Z,1024.94
2023-03-01T11:06:37.067Z,1025.03
2023-03-01T11:07:37.293Z,1024.92
2023-03-01T11:08:37.545Z,1025.07
2023-03-01T11:09:37.763Z,1024.96
2023-03-01T11:10:38.008Z,1024.96
2023-03-01T11:11:38.259Z,1024.95
2023-03-01T11:12:38.533Z,1024.91
2023-03-01T11:13:39.535Z,1024.89
2023-03-01T11:14:39.012Z,1024.93
2023-03-01T11:15:39.285Z,1024.96
2023-03-01T11:16:39.577Z,1024.94
2023-03-01T11:17:53.541Z,1024.90
2023-03-01T11:18:48.044Z,1024.89
2023-03-01T11:19:43.678Z,1024.85
2023-03-01T11:20:40.747Z,1024.89
2023-03-01T11:21:41.004Z,1024.88
2023-03-01T11:22:41.250Z,1024.87
2023-03-01T11:23:41.491Z,1024.85
2023-03-01T11:24:43.199Z,1024.81
2023-03-01T11:25:42.013Z,1024.85
2023-03-01T11:26:42.306Z,1024.79
2023-03-01T11:27:42.559Z,1024.88
2023-03-01T11:28:42.829Z,1024.87
2023-03-01T11:29:48.918Z,1024.83
2023-03-01T11:30:44.383Z,1024.79
2023-03-01T11:31:56.739Z,1024.78
2023-03-01T11:32:45.068Z,1024.84
2023-03-01T11:33:44.236Z,1024.82
2023-03-01T11:34:44.461Z,1024.87
2023-03-01T11:35:44.797Z,1024.83
2023-03-01T11:36:45.074Z,1024.87
2023-03-01T11:37:45.309Z,1024.87
2023-03-01T11:38:45.586Z,1024.80
2023-03-01T11:39:45.868Z,1024.82
2023-03-01T11:40:46.091Z,1024.86
2023-03-01T11:41:46.355Z,1024.80
2023-03-01T11:42:46.639Z,1024.86
2023-03-01T11:43:46.872Z,1024.91
2023-03-01T11:44:47.102Z,1024.75
2023-03-01T11:45:47.353Z,1024.79
2023-03-01T11:46:47.725Z,1024.76
2023-03-01T11:47:47.978Z,1024.69
2023-03-01T11:48:50.163Z,1024.73
2023-03-01T11:49:48.531Z,1024.70
2023-03-01T11:50:48.792Z,1024.66
2023-03-01T11:51:49.044Z,1024.63
2023-03-01T11:52:49.283Z,1024.68
2023-03-01T11:53:49.528Z,1024.69
2023-03-01T11:54:49.776Z,1024.69
2023-03-01T11:55:50.017Z,1024.65
2023-03-01T11:56:50.301Z,1024.65
2023-03-01T11:57:50.558Z,1024.67
2023-03-01T11:58:50.809Z,1024.61
2023-03-01T11:59:51.076Z,1024.62
2023-03-01T12:00:51.321Z,1024.66
2023-03-01T12:01:51.651Z,1024.71
2023-03-01T12:02:51.896Z,1024.66
2023-03-01T12:03:52.190Z,1024.70
2023-03-01T12:04:52.498Z,1024.61
2023-03-01T12:05:52.741Z,1024.57
2023-03-01T12:06:53.029Z,1024.56
2023-03-01T12:07:53.269Z,1024.58
2023-03-01T12:08:53.508Z,1024.50